Time;durP1;ratioP1;P1;durP2;ratioP2;P2;SDS_P1;SDS_P2;PMS_P1;PMS_P2;Temp;Humidity;BMP_temperature;BMP_pressure;BME280_temperature;BME280_humidity;BME280_pressure;Samples;Min_cycle;Max_cycle;Signal;HPM_P1;HPM_P2
2022/03/15 00:00:04;;;;;;;20.25;12.00;;;8.20;99.90;;;;;;5075264;28;20534;-46
2022/03/15 00:02:29;;;;;;;12.98;9.52;;;8.10;99.90;;;;;;5075227;28;20178;-46
2022/03/15 00:04:55;;;;;;;11.68;7.57;;;8.00;99.90;;;;;;5074846;28;20216;-46
2022/03/15 00:07:22;;;;;;;10.23;6.25;;;8.10;99.90;;;;;;5056923;28;20243;-50
2022/03/15 00:09:48;;;;;;;12.05;5.40;;;8.10;99.90;;;;;;5074807;28;20173;-47
2022/03/15 00:12:14;;;;;;;8.70;4.45;;;8.20;99.90;;;;;;5074735;28;20158;-47
2022/03/15 00:14:41;;;;;;;10.43;4.78;;;8.10;99.90;;;;;;5074824;28;20220;-46
2022/03/15 00:17:07;;;;;;;8.52;4.22;;;8.00;99.90;;;;;;5057265;28;20201;-46
2022/03/15 00:19:33;;;;;;;8.20;5.13;;;8.10;99.90;;;;;;5075125;28;20170;-46
2022/03/15 00:21:58;;;;;;;10.38;4.35;;;8.10;99.90;;;;;;5074682;28;20158;-48
2022/03/15 00:24:25;;;;;;;7.90;3.70;;;8.00;99.90;;;;;;5056589;28;20170;-46
2022/03/15 00:26:51;;;;;;;6.80;4.22;;;8.00;99.90;;;;;;5074712;28;20174;-46
2022/03/15 00:29:19;;;;;;;12.27;4.88;;;8.00;99.90;;;;;;5074424;28;20177;-46
2022/03/15 00:31:45;;;;;;;8.13;4.35;;;7.90;99.90;;;;;;5074383;28;20158;-46
2022/03/15 00:34:11;;;;;;;6.72;4.15;;;7.80;99.90;;;;;;5074343;28;20181;-46
2022/03/15 00:36:37;;;;;;;7.72;3.92;;;7.80;99.90;;;;;;5074242;28;20577;-47
2022/03/15 00:39:04;;;;;;;9.82;4.90;;;7.80;99.90;;;;;;5074738;28;20186;-46
2022/03/15 00:41:30;;;;;;;10.50;7.10;;;7.70;99.90;;;;;;5074720;28;20170;-46
2022/03/15 00:43:56;;;;;;;11.02;5.72;;;7.70;99.90;;;;;;5074172;28;20194;-47
2022/03/15 00:46:21;;;;;;;11.90;4.82;;;7.70;99.90;;;;;;5073610;28;20236;-46
2022/03/15 00:48:47;;;;;;;10.93;4.50;;;7.80;99.90;;;;;;5073684;28;20170;-46
2022/03/15 00:51:12;;;;;;;10.23;5.07;;;7.60;99.90;;;;;;5074047;28;20578;-46
2022/03/15 00:53:38;;;;;;;9.10;4.63;;;7.50;99.90;;;;;;5073969;28;20174;-46
2022/03/15 00:56:04;;;;;;;12.70;5.00;;;7.60;99.90;;;;;;5074182;28;20177;-46
2022/03/15 00:58:30;;;;;;;11.05;5.50;;;7.60;99.90;;;;;;5074164;28;20618;-46
2022/03/15 01:00:56;;;;;;;6.63;5.32;;;7.60;99.90;;;;;;5073823;28;20166;-46
2022/03/15 01:03:22;;;;;;;14.85;5.32;;;7.50;99.90;;;;;;5073998;28;20170;-46
2022/03/15 01:05:47;;;;;;;10.32;5.90;;;7.60;99.90;;;;;;5073663;28;20650;-47
2022/03/15 01:08:14;;;;;;;8.60;4.90;;;7.60;99.90;;;;;;5073643;28;20170;-46
2022/03/15 01:10:40;;;;;;;10.07;4.90;;;7.60;99.90;;;;;;5073697;28;20166;-46
2022/03/15 01:13:06;;;;;;;10.25;5.25;;;7.60;99.90;;;;;;5073154;28;20181;-47
2022/03/15 01:15:41;;;;;;;9.90;5.90;;;7.60;99.90;;;;;;5073719;28;20166;-46
2022/03/15 01:18:07;;;;;;;10.90;5.80;;;7.50;99.90;;;;;;5073361;28;20201;-47
2022/03/15 01:20:32;;;;;;;13.07;5.75;;;7.50;99.90;;;;;;5073813;28;20173;-47
2022/03/15 01:22:58;;;;;;;11.95;5.97;;;7.40;99.90;;;;;;5073363;28;20213;-48
2022/03/15 01:25:23;;;;;;;9.85;6.57;;;7.40;99.90;;;;;;5073324;28;20550;-47
2022/03/15 01:27:49;;;;;;;11.07;5.93;;;7.40;99.90;;;;;;5073254;28;20635;-46
2022/03/15 01:30:14;;;;;;;11.15;6.47;;;7.40;99.90;;;;;;5073235;28;20167;-47
2022/03/15 01:32:40;;;;;;;11.10;6.20;;;7.40;99.90;;;;;;5073159;28;20706;-46
2022/03/15 01:35:06;;;;;;;15.63;6.72;;;7.40;99.90;;;;;;5073236;28;20533;-47
2022/03/15 01:37:32;;;;;;;13.65;6.43;;;7.40;99.90;;;;;;5073289;28;20198;-46
2022/03/15 01:39:57;;;;;;;10.88;5.88;;;7.50;99.90;;;;;;5073306;28;20253;-46
2022/03/15 01:42:23;;;;;;;10.40;5.88;;;7.50;99.90;;;;;;5072954;28;20475;-46
2022/03/15 01:44:49;;;;;;;11.55;5.50;;;7.50;99.90;;;;;;5072996;28;20599;-46
2022/03/15 01:47:15;;;;;;;11.00;5.38;;;7.60;99.90;;;;;;5072834;28;20222;-46
2022/03/15 01:49:41;;;;;;;9.25;5.07;;;7.50;99.90;;;;;;5073047;28;20227;-47
2022/03/15 01:52:10;;;;;;;10.65;5.03;;;7.50;99.90;;;;;;5072744;28;20174;-46
2022/03/15 01:54:36;;;;;;;11.57;6.00;;;7.40;99.90;;;;;;5072990;28;20308;-47
2022/03/15 01:57:03;;;;;;;8.45;4.88;;;7.50;99.90;;;;;;5072900;28;20197;-46
2022/03/15 01:59:29;;;;;;;10.63;5.38;;;7.40;99.90;;;;;;5072887;28;20174;-46
2022/03/15 02:01:55;;;;;;;10.07;5.32;;;7.40;99.90;;;;;;5072871;28;20170;-46
2022/03/15 02:04:20;;;;;;;9.38;5.00;;;7.40;99.90;;;;;;5072626;28;20627;-46
2022/03/15 02:06:48;;;;;;;14.98;5.78;;;7.40;99.90;;;;;;5072642;28;20615;-46
2022/03/15 02:09:15;;;;;;;8.70;5.25;;;7.50;99.90;;;;;;5072982;28;20181;-46
2022/03/15 02:11:45;;;;;;;11.60;5.68;;;7.50;99.90;;;;;;5072705;28;20170;-46
2022/03/15 02:14:10;;;;;;;13.45;5.75;;;7.40;99.90;;;;;;5072503;28;20176;-46
2022/03/15 02:16:36;;;;;;;10.32;6.00;;;7.40;99.90;;;;;;5072371;28;20250;-46
2022/03/15 02:19:03;;;;;;;10.18;6.13;;;7.40;99.90;;;;;;5072815;28;20210;-47
2022/03/15 02:21:30;;;;;;;12.13;5.78;;;7.40;99.90;;;;;;5072941;28;20642;-46
2022/03/15 02:23:56;;;;;;;8.73;5.82;;;7.40;99.90;;;;;;5072393;28;20261;-46
2022/03/15 02:26:22;;;;;;;8.88;5.45;;;7.40;99.90;;;;;;5072549;28;20646;-46
2022/03/15 02:28:48;;;;;;;8.57;4.85;;;7.30;99.90;;;;;;5072421;28;20166;-46
2022/03/15 02:31:14;;;;;;;11.57;5.38;;;7.30;99.90;;;;;;5072230;28;20162;-46
2022/03/15 02:33:39;;;;;;;14.10;5.90;;;7.40;99.90;;;;;;5072215;28;20181;-46
2022/03/15 02:36:05;;;;;;;9.48;5.38;;;7.30;99.90;;;;;;5072105;28;20178;-46
2022/03/15 02:38:30;;;;;;;8.65;4.97;;;7.30;99.90;;;;;;5072340;28;20206;-46
2022/03/15 02:40:56;;;;;;;9.68;5.15;;;7.20;99.90;;;;;;5072013;28;20253;-47
2022/03/15 02:43:23;;;;;;;9.63;5.43;;;7.20;99.90;;;;;;5071984;28;20300;-46
2022/03/15 02:45:48;;;;;;;13.07;5.65;;;7.20;99.90;;;;;;5072051;28;20608;-47
2022/03/15 02:48:14;;;;;;;11.95;5.30;;;7.30;99.90;;;;;;5071776;28;20211;-46
2022/03/15 02:50:40;;;;;;;8.93;5.00;;;7.30;99.90;;;;;;5071996;28;20202;-46
2022/03/15 02:53:07;;;;;;;14.90;6.10;;;7.40;99.90;;;;;;5071953;28;20172;-46
2022/03/15 02:55:33;;;;;;;9.23;5.60;;;7.40;99.90;;;;;;5072401;28;20173;-46
2022/03/15 02:57:59;;;;;;;14.95;5.95;;;7.50;99.90;;;;;;5072101;28;20296;-47
2022/03/15 03:00:27;;;;;;;11.70;4.97;;;7.50;99.90;;;;;;5072093;28;20170;-47
2022/03/15 03:02:53;;;;;;;9.43;5.30;;;7.50;99.90;;;;;;5072131;28;20185;-47
2022/03/15 03:05:18;;;;;;;20.88;6.60;;;7.50;99.90;;;;;;5071803;28;20170;-46
2022/03/15 03:07:45;;;;;;;10.77;5.70;;;7.50;99.90;;;;;;5071760;28;20184;-46
2022/03/15 03:10:12;;;;;;;11.90;5.47;;;7.50;99.90;;;;;;5072733;28;20623;-49
2022/03/15 03:12:41;;;;;;;9.68;5.47;;;7.50;99.90;;;;;;5076155;28;20600;-49
2022/03/15 03:15:13;;;;;;;11.73;6.18;;;7.40;99.90;;;;;;5076163;28;20170;-49
2022/03/15 03:17:42;;;;;;;13.00;6.57;;;7.40;99.90;;;;;;5075691;28;20696;-49
2022/03/15 03:20:13;;;;;;;8.45;5.75;;;7.40;99.90;;;;;;5075747;28;20278;-48
2022/03/15 03:22:39;;;;;;;14.30;6.20;;;7.40;99.90;;;;;;5075928;28;20166;-48
2022/03/15 03:25:05;;;;;;;13.82;7.15;;;7.30;99.90;;;;;;5075710;28;20172;-48
2022/03/15 03:27:32;;;;;;;12.30;6.80;;;7.40;99.90;;;;;;5075810;28;20162;-48
2022/03/15 03:29:58;;;;;;;12.82;6.35;;;7.30;99.90;;;;;;5075549;28;20617;-48
2022/03/15 03:32:25;;;;;;;10.30;5.90;;;7.30;99.90;;;;;;5075721;28;20212;-48
2022/03/15 03:34:51;;;;;;;11.02;6.05;;;7.40;99.90;;;;;;5075684;28;20556;-49
2022/03/15 03:37:17;;;;;;;11.85;6.40;;;7.30;99.90;;;;;;5075395;28;20200;-48
2022/03/15 03:39:42;;;;;;;9.73;6.28;;;7.30;99.90;;;;;;5075532;28;20170;-48
2022/03/15 03:42:09;;;;;;;9.00;5.68;;;7.30;99.90;;;;;;5075288;28;20177;-46
2022/03/15 03:44:35;;;;;;;19.17;6.80;;;7.30;99.90;;;;;;5075515;28;20227;-47
2022/03/15 03:47:02;;;;;;;16.38;6.28;;;7.20;99.90;;;;;;5075296;28;20702;-47
2022/03/15 03:49:29;;;;;;;8.73;5.97;;;7.20;99.90;;;;;;5074298;28;20635;-48
2022/03/15 03:51:55;;;;;;;11.00;5.65;;;7.20;99.90;;;;;;5075309;28;20172;-47
2022/03/15 03:54:20;;;;;;;14.52;6.40;;;7.30;99.90;;;;;;5075005;28;20261;-46
2022/03/15 03:56:46;;;;;;;9.27;5.78;;;7.30;99.90;;;;;;5075260;28;20209;-46
2022/03/15 03:59:12;;;;;;;12.20;5.97;;;7.20;99.90;;;;;;5075258;28;20177;-46
2022/03/15 04:01:39;;;;;;;13.43;6.03;;;7.20;99.90;;;;;;5075215;28;20174;-46
2022/03/15 04:04:06;;;;;;;10.70;5.30;;;7.20;99.90;;;;;;5075196;28;20178;-46
2022/03/15 04:06:32;;;;;;;11.00;6.65;;;7.20;99.90;;;;;;5075068;28;20280;-46
2022/03/15 04:08:59;;;;;;;9.68;5.78;;;7.10;99.90;;;;;;5074846;28;20174;-46
2022/03/15 04:11:25;;;;;;;8.60;5.82;;;7.10;99.90;;;;;;5074702;28;20643;-46
2022/03/15 04:13:51;;;;;;;12.57;5.57;;;7.10;99.90;;;;;;5074776;28;20174;-45
2022/03/15 04:16:17;;;;;;;13.68;6.53;;;7.20;99.90;;;;;;5074671;28;20611;-46
2022/03/15 04:18:43;;;;;;;14.50;6.07;;;7.10;99.90;;;;;;5074774;28;20304;-46
2022/03/15 04:21:09;;;;;;;14.43;7.07;;;7.10;99.90;;;;;;5056178;28;20543;-46
2022/03/15 04:23:35;;;;;;;13.63;7.68;;;7.10;99.90;;;;;;5073856;28;20208;-46
2022/03/15 04:26:00;;;;;;;14.85;7.40;;;7.10;99.90;;;;;;5074770;28;20245;-46
2022/03/15 04:28:26;;;;;;;10.27;5.53;;;7.10;99.90;;;;;;5074435;28;20250;-46
2022/03/15 04:30:52;;;;;;;11.30;5.65;;;7.10;99.90;;;;;;5074451;28;20170;-46
2022/03/15 04:33:18;;;;;;;12.68;6.63;;;7.10;99.90;;;;;;5056469;28;20166;-46
2022/03/15 04:35:43;;;;;;;14.23;6.28;;;7.00;99.90;;;;;;5074389;28;20243;-47
2022/03/15 04:38:09;;;;;;;13.98;6.78;;;7.20;99.90;;;;;;5074347;28;20213;-46
2022/03/15 04:40:34;;;;;;;12.07;5.68;;;7.20;99.90;;;;;;5074264;28;20166;-46
2022/03/15 04:43:01;;;;;;;12.77;6.28;;;7.10;99.90;;;;;;5074715;28;20177;-46
2022/03/15 04:45:27;;;;;;;12.93;7.05;;;7.10;99.90;;;;;;5074310;28;20170;-46
2022/03/15 04:47:52;;;;;;;9.60;6.00;;;7.20;99.90;;;;;;5073895;28;20231;-47
2022/03/15 04:50:18;;;;;;;16.55;7.38;;;7.00;99.90;;;;;;5074091;28;20269;-46
2022/03/15 04:52:43;;;;;;;10.23;6.78;;;7.10;99.90;;;;;;5073975;28;20169;-47
2022/03/15 04:55:09;;;;;;;18.00;8.60;;;7.10;99.90;;;;;;5073902;28;20181;-46
2022/03/15 04:57:35;;;;;;;19.13;9.50;;;7.00;99.90;;;;;;5073808;28;20201;-46
2022/03/15 05:00:00;;;;;;;15.80;9.07;;;7.00;99.90;;;;;;5074127;28;20185;-46
2022/03/15 05:02:26;;;;;;;23.67;12.75;;;7.00;99.90;;;;;;5055884;28;20162;-48
2022/03/15 05:04:52;;;;;;;31.10;11.40;;;7.00;99.90;;;;;;5073606;28;20166;-47
2022/03/15 05:07:18;;;;;;;40.25;20.15;;;7.10;99.90;;;;;;5073577;28;20178;-46
2022/03/15 05:12:28;;;;;;;14.85;8.43;;;7.00;99.90;;;;;;5073590;28;20220;-46
2022/03/15 05:14:54;;;;;;;15.63;8.13;;;7.00;99.90;;;;;;5073765;28;20173;-46
2022/03/15 05:17:20;;;;;;;10.02;6.45;;;7.00;99.90;;;;;;5073571;28;20288;-46
2022/03/15 05:19:47;;;;;;;11.88;6.45;;;7.00;99.90;;;;;;5073383;28;20169;-47
2022/03/15 05:22:12;;;;;;;15.57;7.68;;;6.90;99.90;;;;;;5073789;28;20562;-46
2022/03/15 05:24:38;;;;;;;13.25;7.63;;;6.90;99.90;;;;;;5073229;28;20162;-46
2022/03/15 05:27:03;;;;;;;12.50;6.15;;;6.90;99.90;;;;;;5073458;28;20170;-47
2022/03/15 05:29:29;;;;;;;12.63;7.57;;;6.90;99.90;;;;;;5055312;28;20642;-47
2022/03/15 05:31:55;;;;;;;19.00;9.07;;;6.90;99.90;;;;;;5073119;28;20185;-46
2022/03/15 05:34:20;;;;;;;10.63;7.57;;;6.90;99.90;;;;;;5072976;28;20236;-46
2022/03/15 05:36:48;;;;;;;15.05;8.73;;;6.90;99.90;;;;;;5073229;28;20808;-46
2022/03/15 05:39:14;;;;;;;21.65;10.13;;;6.90;99.90;;;;;;5073029;28;20170;-47
2022/03/15 05:41:40;;;;;;;21.95;12.40;;;6.90;99.90;;;;;;5073196;28;20188;-46
2022/03/15 05:44:06;;;;;;;23.75;9.90;;;6.80;99.90;;;;;;5072991;28;20166;-46
2022/03/15 05:46:32;;;;;;;11.77;7.35;;;6.90;99.90;;;;;;5073165;28;20218;-46
2022/03/15 05:48:58;;;;;;;9.98;6.15;;;6.90;99.90;;;;;;5072898;28;20249;-46
2022/03/15 05:51:24;;;;;;;16.33;8.95;;;6.90;99.90;;;;;;5072762;28;20597;-47
2022/03/15 05:53:49;;;;;;;18.13;6.97;;;6.90;99.90;;;;;;5072567;28;20170;-47
2022/03/15 05:56:15;;;;;;;22.55;9.57;;;6.90;99.90;;;;;;5072511;28;20174;-47
2022/03/15 05:58:42;;;;;;;18.40;8.80;;;6.90;99.90;;;;;;5072724;28;20249;-47
2022/03/15 06:01:08;;;;;;;21.83;12.07;;;6.90;99.90;;;;;;5072802;28;20175;-47
2022/03/15 06:03:34;;;;;;;12.93;6.07;;;6.90;99.90;;;;;;5072934;28;20166;-46
2022/03/15 06:05:59;;;;;;;11.45;6.50;;;6.90;99.90;;;;;;5072825;28;20170;-46
2022/03/15 06:08:25;;;;;;;13.68;5.63;;;6.90;99.90;;;;;;5072503;28;20194;-46
2022/03/15 06:10:50;;;;;;;14.43;5.75;;;6.80;99.90;;;;;;5072493;28;20639;-47
2022/03/15 06:13:16;;;;;;;14.57;7.72;;;6.90;99.90;;;;;;5072449;28;20163;-46
2022/03/15 06:15:42;;;;;;;8.45;6.15;;;6.80;99.90;;;;;;5072358;28;20170;-46
2022/03/15 06:18:08;;;;;;;10.88;5.47;;;6.90;99.90;;;;;;5072217;28;20198;-46
2022/03/15 06:20:34;;;;;;;10.02;5.60;;;6.90;99.90;;;;;;5072621;28;20162;-46
2022/03/15 06:23:00;;;;;;;24.35;12.18;;;6.90;99.90;;;;;;5072634;28;20181;-47
2022/03/15 06:25:26;;;;;;;13.65;6.50;;;6.90;99.90;;;;;;5072405;28;20504;-47
2022/03/15 06:27:52;;;;;;;24.73;7.88;;;6.90;99.90;;;;;;5072353;28;20177;-46
2022/03/15 06:30:19;;;;;;;13.30;6.88;;;7.00;99.90;;;;;;5072123;28;20173;-45
2022/03/15 06:32:45;;;;;;;23.05;10.70;;;7.00;99.90;;;;;;5072325;28;20173;-46
2022/03/15 06:35:13;;;;;;;17.83;8.65;;;7.00;99.90;;;;;;5072075;28;20283;-46
2022/03/15 06:37:43;;;;;;;11.30;6.40;;;7.00;99.90;;;;;;5072043;28;20205;-46
2022/03/15 06:40:09;;;;;;;15.98;7.28;;;7.10;99.90;;;;;;5072192;28;20173;-46
2022/03/15 06:42:36;;;;;;;28.05;12.27;;;7.10;99.90;;;;;;5071980;28;20681;-47
2022/03/15 06:45:03;;;;;;;32.72;15.45;;;7.20;99.90;;;;;;5071801;28;20181;-46
2022/03/15 06:47:28;;;;;;;48.67;18.17;;;7.20;99.90;;;;;;5071790;28;20223;-46
2022/03/15 06:49:54;;;;;;;32.30;13.85;;;7.20;99.90;;;;;;5071773;28;20607;-46
2022/03/15 06:52:19;;;;;;;30.63;13.32;;;7.30;99.90;;;;;;5071898;28;20174;-46
2022/03/15 06:54:45;;;;;;;35.58;14.50;;;7.30;99.90;;;;;;5072105;28;20214;-46
2022/03/15 06:57:10;;;;;;;33.30;15.02;;;7.30;99.90;;;;;;5071767;28;20288;-46
2022/03/15 06:59:36;;;;;;;32.08;12.13;;;7.40;99.90;;;;;;5071850;28;20162;-49
2022/03/15 07:02:02;;;;;;;18.48;7.25;;;7.40;99.90;;;;;;5071902;28;20168;-49
2022/03/15 07:04:27;;;;;;;25.60;9.32;;;7.40;99.90;;;;;;5072087;28;20805;-49
2022/03/15 07:06:53;;;;;;;18.42;8.48;;;7.40;99.90;;;;;;5071963;28;20176;-49
2022/03/15 07:09:18;;;;;;;34.13;10.85;;;7.40;99.90;;;;;;5071579;28;20546;-49
2022/03/15 07:11:44;;;;;;;44.75;13.60;;;7.50;99.90;;;;;;5071681;28;20166;-48
2022/03/15 07:14:09;;;;;;;31.05;12.73;;;7.40;99.90;;;;;;5071616;28;20249;-49
2022/03/15 07:16:35;;;;;;;30.83;11.52;;;7.40;99.90;;;;;;5071666;28;20162;-47
2022/03/15 07:19:00;;;;;;;16.55;6.75;;;7.50;99.90;;;;;;5071854;28;20201;-49
2022/03/15 07:21:26;;;;;;;23.63;9.73;;;7.50;99.90;;;;;;5071742;28;20170;-48
2022/03/15 07:23:51;;;;;;;13.93;7.00;;;7.50;99.90;;;;;;5071524;28;20631;-49
2022/03/15 07:26:17;;;;;;;21.63;9.40;;;7.60;99.90;;;;;;5071596;28;20203;-48
2022/03/15 07:28:42;;;;;;;15.68;7.40;;;7.70;99.90;;;;;;5071529;28;20188;-47
2022/03/15 07:31:08;;;;;;;20.75;8.50;;;7.60;99.90;;;;;;5071456;28;20162;-48
2022/03/15 07:33:34;;;;;;;14.45;7.05;;;7.60;99.90;;;;;;5071932;28;20162;-46
2022/03/15 07:36:00;;;;;;;8.30;5.00;;;7.70;99.90;;;;;;5071860;28;20294;-48
2022/03/15 07:38:26;;;;;;;8.70;4.85;;;7.70;99.90;;;;;;5071260;28;20250;-48
2022/03/15 07:40:56;;;;;;;9.82;4.97;;;7.70;99.90;;;;;;5071606;28;20245;-49
2022/03/15 07:43:23;;;;;;;17.38;5.47;;;7.70;99.90;;;;;;5053488;28;20173;-48
2022/03/15 07:45:50;;;;;;;7.07;4.63;;;7.70;99.90;;;;;;5071658;28;20249;-47
2022/03/15 07:48:18;;;;;;;9.73;4.40;;;7.80;99.90;;;;;;5071486;28;20197;-48
2022/03/15 07:50:43;;;;;;;6.97;4.40;;;7.80;99.90;;;;;;5071320;28;20654;-49
2022/03/15 07:53:09;;;;;;;9.43;4.65;;;7.80;99.90;;;;;;5071355;28;20182;-49
2022/03/15 07:55:35;;;;;;;7.80;5.03;;;7.90;99.90;;;;;;5071273;28;20172;-47
2022/03/15 07:58:01;;;;;;;8.75;5.00;;;7.90;99.90;;;;;;5075031;28;20209;-49
2022/03/15 08:00:27;;;;;;;14.65;5.28;;;8.00;99.90;;;;;;5074771;28;20181;-48
2022/03/15 08:02:53;;;;;;;12.90;5.30;;;8.00;99.90;;;;;;5074766;28;20178;-50
2022/03/15 08:05:19;;;;;;;8.80;4.60;;;8.10;99.90;;;;;;5075040;28;20264;-48
2022/03/15 08:07:45;;;;;;;8.30;5.03;;;8.10;99.90;;;;;;5074614;28;20170;-47
2022/03/15 08:10:10;;;;;;;8.75;4.07;;;8.20;99.90;;;;;;5074882;28;20177;-46
2022/03/15 08:12:37;;;;;;;10.52;4.78;;;8.20;99.90;;;;;;5074515;28;20177;-45
2022/03/15 08:15:06;;;;;;;7.82;4.18;;;8.20;99.90;;;;;;5075141;28;20164;-47
2022/03/15 08:17:33;;;;;;;6.80;4.55;;;8.20;99.90;;;;;;5075057;28;20190;-46
2022/03/15 08:19:59;;;;;;;9.60;3.90;;;8.10;99.90;;;;;;5074390;28;20647;-48
2022/03/15 08:22:26;;;;;;;10.20;4.50;;;8.00;99.90;;;;;;5074533;28;20242;-46
2022/03/15 08:24:52;;;;;;;10.90;4.70;;;8.00;99.90;;;;;;5074341;28;20174;-46
2022/03/15 08:27:18;;;;;;;8.38;4.78;;;8.00;99.90;;;;;;5074344;28;20178;-46
2022/03/15 08:29:44;;;;;;;13.27;4.78;;;8.00;99.90;;;;;;5074344;28;20163;-47
2022/03/15 08:32:10;;;;;;;7.35;4.75;;;8.10;99.90;;;;;;5074344;28;20177;-49
2022/03/15 08:34:36;;;;;;;11.43;5.35;;;8.10;99.90;;;;;;5074518;28;20504;-46
2022/03/15 08:37:01;;;;;;;7.32;4.65;;;8.20;99.90;;;;;;5074470;28;20651;-46
2022/03/15 08:39:27;;;;;;;11.10;5.55;;;8.20;99.90;;;;;;5074406;28;20182;-47
2022/03/15 08:41:53;;;;;;;7.18;4.88;;;8.10;99.90;;;;;;5074428;28;20166;-46
2022/03/15 08:44:19;;;;;;;13.45;6.25;;;8.20;99.90;;;;;;5074112;28;20636;-47
2022/03/15 08:46:49;;;;;;;8.63;5.10;;;8.20;99.90;;;;;;5074147;28;20233;-47
2022/03/15 08:49:17;;;;;;;11.13;5.22;;;8.20;99.90;;;;;;5074064;28;20162;-48
2022/03/15 08:51:43;;;;;;;10.85;5.07;;;8.20;99.90;;;;;;5073923;28;20166;-48
2022/03/15 08:54:09;;;;;;;9.93;4.90;;;8.20;99.90;;;;;;5074021;28;20162;-49
2022/03/15 08:56:35;;;;;;;8.65;5.20;;;8.30;99.90;;;;;;5073795;28;20208;-47
2022/03/15 08:59:02;;;;;;;13.68;5.03;;;8.30;99.90;;;;;;5074334;28;20209;-47
2022/03/15 09:01:27;;;;;;;8.70;5.28;;;8.40;99.90;;;;;;5073665;28;20169;-47
2022/03/15 09:03:53;;;;;;;14.25;6.78;;;8.40;99.90;;;;;;5073738;28;20162;-46
2022/03/15 09:06:18;;;;;;;14.52;8.20;;;8.50;99.90;;;;;;5055653;28;20170;-46
2022/03/15 09:08:46;;;;;;;14.45;8.10;;;8.50;99.90;;;;;;5072935;28;20166;-47
2022/03/15 09:11:12;;;;;;;17.15;9.13;;;8.50;99.90;;;;;;5073543;28;20643;-47
2022/03/15 09:13:37;;;;;;;18.73;9.00;;;8.60;99.90;;;;;;5073499;28;20205;-47
2022/03/15 09:16:05;;;;;;;14.43;8.23;;;8.60;99.90;;;;;;5073934;28;20529;-48
2022/03/15 09:18:31;;;;;;;10.85;6.60;;;8.70;99.90;;;;;;5073972;28;20224;-48
2022/03/15 09:20:57;;;;;;;8.60;5.55;;;8.80;99.90;;;;;;5073422;28;20166;-48
2022/03/15 09:23:22;;;;;;;7.32;5.03;;;8.90;99.90;;;;;;5073310;28;20245;-49
2022/03/15 09:25:49;;;;;;;9.57;6.50;;;8.90;99.90;;;;;;5073442;28;20174;-48
2022/03/15 09:28:16;;;;;;;11.95;6.05;;;8.90;99.90;;;;;;5073372;28;20219;-48
2022/03/15 09:30:43;;;;;;;8.93;5.68;;;8.80;99.90;;;;;;5073162;28;20580;-48
2022/03/15 09:33:08;;;;;;;7.30;4.25;;;8.90;99.90;;;;;;5073262;28;20158;-47
2022/03/15 09:35:35;;;;;;;8.55;4.53;;;8.90;99.90;;;;;;5073352;28;20214;-48
2022/03/15 09:38:01;;;;;;;10.30;4.72;;;9.00;99.90;;;;;;5073248;28;20197;-48
2022/03/15 09:40:26;;;;;;;7.78;4.78;;;9.00;99.90;;;;;;5072960;28;20615;-46
2022/03/15 09:43:00;;;;;;;13.55;4.65;;;9.10;99.90;;;;;;5072944;28;20177;-46
2022/03/15 09:45:31;;;;;;;6.13;4.40;;;9.00;99.90;;;;;;5072839;28;20185;-47
2022/03/15 09:47:59;;;;;;;8.40;4.55;;;9.10;99.90;;;;;;5072743;28;20342;-48
2022/03/15 09:50:25;;;;;;;5.80;4.32;;;9.00;99.90;;;;;;5055213;28;20174;-48
2022/03/15 09:52:56;;;;;;;12.07;4.78;;;9.00;99.90;;;;;;5072678;28;20639;-47
2022/03/15 09:55:22;;;;;;;7.85;4.70;;;9.10;99.90;;;;;;5072589;28;20173;-47
2022/03/15 09:57:48;;;;;;;11.63;5.32;;;9.00;99.90;;;;;;5072521;28;20198;-47
2022/03/15 10:00:16;;;;;;;11.43;5.00;;;9.00;99.90;;;;;;5072704;28;20259;-48
2022/03/15 10:02:43;;;;;;;6.30;4.90;;;9.00;99.90;;;;;;5072782;28;20176;-48
2022/03/15 10:05:10;;;;;;;14.75;6.78;;;9.00;99.90;;;;;;5072651;28;20174;-48
2022/03/15 10:07:36;;;;;;;10.73;5.50;;;8.90;99.90;;;;;;5072458;28;20646;-47
2022/03/15 10:10:04;;;;;;;9.20;5.78;;;9.00;99.90;;;;;;5072525;28;20704;-47
2022/03/15 10:12:30;;;;;;;8.27;5.15;;;9.00;99.90;;;;;;5072917;28;20178;-47
2022/03/15 10:14:56;;;;;;;11.18;5.22;;;9.00;99.90;;;;;;5072222;28;20184;-47
2022/03/15 10:17:22;;;;;;;10.88;5.20;;;9.00;99.90;;;;;;5072575;28;20190;-47
2022/03/15 10:19:55;;;;;;;8.93;6.05;;;9.00;99.90;;;;;;5071449;28;20170;-48
2022/03/15 10:22:23;;;;;;;7.82;6.28;;;9.10;99.90;;;;;;5072182;28;20204;-51
2022/03/15 10:24:49;;;;;;;11.48;6.03;;;9.10;99.90;;;;;;5072296;28;20173;-47
2022/03/15 10:27:15;;;;;;;10.52;4.57;;;9.10;99.90;;;;;;5072235;28;20166;-48
2022/03/15 10:29:43;;;;;;;8.52;4.90;;;9.10;99.90;;;;;;5072461;28;20177;-48
2022/03/15 10:32:09;;;;;;;12.15;5.22;;;9.10;99.90;;;;;;5054315;28;20169;-48
2022/03/15 10:34:36;;;;;;;11.05;5.13;;;9.30;99.90;;;;;;5072266;28;20551;-48
2022/03/15 10:37:02;;;;;;;7.28;4.53;;;9.30;99.90;;;;;;5072324;28;20166;-47
2022/03/15 10:39:28;;;;;;;6.30;4.72;;;9.20;99.90;;;;;;5072268;28;20177;-48
2022/03/15 10:42:05;;;;;;;11.23;4.90;;;9.20;99.90;;;;;;5072309;28;20173;-48
2022/03/15 10:44:35;;;;;;;5.88;4.25;;;9.30;99.90;;;;;;5072506;28;20169;-47
2022/03/15 10:47:07;;;;;;;9.05;6.47;;;9.40;99.90;;;;;;5071984;28;20257;-48
2022/03/15 10:49:59;;;;;;;10.55;5.47;;;9.40;99.90;;;;;;5054199;28;20265;-47
2022/03/15 10:52:40;;;;;;;10.48;5.75;;;9.50;99.90;;;;;;5071885;28;20684;-47
2022/03/15 10:55:22;;;;;;;10.57;6.10;;;9.50;99.90;;;;;;5072077;28;20295;-47
2022/03/15 10:58:03;;;;;;;134.38;73.80;;;9.40;99.90;;;;;;5071643;28;20655;-47
2022/03/15 11:00:32;;;;;;;49.55;26.45;;;9.50;99.90;;;;;;5072024;28;20173;-46
2022/03/15 11:02:58;;;;;;;23.90;11.35;;;9.60;99.90;;;;;;5071684;28;20158;-48
2022/03/15 11:05:35;;;;;;;23.73;14.45;;;9.70;99.90;;;;;;5071694;28;20166;-48
2022/03/15 11:08:15;;;;;;;76.10;52.17;;;9.80;99.90;;;;;;5072006;28;20162;-47
2022/03/15 11:10:45;;;;;;;30.13;21.40;;;9.80;99.90;;;;;;5071579;28;20535;-48
2022/03/15 11:13:12;;;;;;;73.38;49.78;;;9.80;99.90;;;;;;5071759;28;20169;-48
2022/03/15 11:15:43;;;;;;;70.30;52.30;;;9.80;99.90;;;;;;5071526;28;20643;-47
2022/03/15 11:18:11;;;;;;;36.95;21.35;;;9.80;99.90;;;;;;5071813;28;20212;-47
2022/03/15 11:20:42;;;;;;;36.00;24.98;;;9.80;99.90;;;;;;5071689;28;20158;-47
2022/03/15 11:23:10;;;;;;;23.90;17.02;;;9.80;99.90;;;;;;5071432;28;20177;-48
2022/03/15 11:25:41;;;;;;;46.20;37.60;;;9.80;99.90;;;;;;5071588;28;20162;-48
2022/03/15 11:28:10;;;;;;;41.33;31.23;;;9.90;99.90;;;;;;5071434;28;20178;-48
2022/03/15 11:30:36;;;;;;;12.90;9.10;;;9.80;99.90;;;;;;5071367;28;20175;-48
2022/03/15 11:33:04;;;;;;;12.82;10.88;;;9.80;99.90;;;;;;5075714;28;20198;-47
2022/03/15 11:35:31;;;;;;;19.02;15.43;;;9.80;99.90;;;;;;5075751;28;20170;-47
2022/03/15 11:37:59;;;;;;;13.40;10.88;;;9.90;99.90;;;;;;5075230;28;20671;-48
2022/03/15 11:40:25;;;;;;;26.90;21.20;;;10.00;99.90;;;;;;5075527;28;20249;-47
2022/03/15 11:42:59;;;;;;;18.02;14.48;;;10.00;99.90;;;;;;5075589;28;20244;-47
2022/03/15 11:45:38;;;;;;;17.25;13.27;;;9.90;99.90;;;;;;5075523;28;20208;-47
2022/03/15 11:48:44;;;;;;;18.23;16.33;;;9.90;99.90;;;;;;5075316;28;20236;-48
2022/03/15 11:51:37;;;;;;;15.93;10.05;;;10.00;99.90;;;;;;5045601;28;20181;-47
2022/03/15 11:54:22;;;;;;;18.67;14.27;;;10.00;99.90;;;;;;5075325;28;20646;-47
2022/03/15 11:56:52;;;;;;;12.98;10.13;;;10.10;99.90;;;;;;5074934;28;20635;-47
2022/03/15 11:59:18;;;;;;;18.63;11.68;;;10.10;99.90;;;;;;5074847;28;20254;-47
2022/03/15 12:01:49;;;;;;;13.27;8.70;;;10.20;99.90;;;;;;5074932;28;20163;-47
2022/03/15 12:04:16;;;;;;;17.10;14.40;;;10.20;99.90;;;;;;5074893;28;20525;-47
2022/03/15 12:06:56;;;;;;;16.08;9.13;;;10.10;99.90;;;;;;5074841;28;20246;-46
2022/03/15 12:09:31;;;;;;;10.93;5.93;;;10.10;99.90;;;;;;5075014;28;20169;-47
2022/03/15 12:12:09;;;;;;;20.10;16.27;;;10.20;99.90;;;;;;5074644;28;20631;-47
2022/03/15 12:14:39;;;;;;;10.90;8.63;;;10.10;99.90;;;;;;5074821;28;20216;-46
2022/03/15 12:17:07;;;;;;;14.23;7.43;;;10.10;99.90;;;;;;5074682;28;20174;-47
2022/03/15 12:19:47;;;;;;;20.63;14.05;;;10.20;99.90;;;;;;5075042;28;20182;-46
2022/03/15 12:22:24;;;;;;;17.20;10.55;;;10.20;99.90;;;;;;5074482;28;20241;-47
2022/03/15 12:25:00;;;;;;;28.65;17.67;;;10.30;99.90;;;;;;5074471;28;20223;-47
2022/03/15 12:27:27;;;;;;;15.25;11.88;;;10.30;99.90;;;;;;5074441;28;20174;-46
2022/03/15 12:29:58;;;;;;;10.38;6.32;;;10.20;99.90;;;;;;5074580;28;20169;-46
2022/03/15 12:32:24;;;;;;;10.10;6.30;;;10.20;99.90;;;;;;5074628;28;20170;-46
2022/03/15 12:34:57;;;;;;;8.38;6.13;;;10.30;99.90;;;;;;5074456;28;20170;-47
2022/03/15 12:37:34;;;;;;;8.80;5.05;;;10.30;99.90;;;;;;5074149;28;20190;-46
2022/03/15 12:40:03;;;;;;;8.40;4.80;;;10.30;99.90;;;;;;5074519;28;20173;-47
2022/03/15 12:42:29;;;;;;;8.50;5.60;;;10.40;99.90;;;;;;5073690;28;20194;-47
2022/03/15 12:45:03;;;;;;;9.95;5.03;;;10.50;99.90;;;;;;5074060;28;20174;-47
2022/03/15 12:47:32;;;;;;;8.40;5.20;;;10.50;99.90;;;;;;5074182;28;20217;-47
2022/03/15 12:50:04;;;;;;;7.03;5.10;;;10.60;99.90;;;;;;5074335;28;20257;-47